Time;durP1;ratioP1;P1;durP2;ratioP2;P2;SDS_P1;SDS_P2;PMS_P1;PMS_P2;Temp;Humidity;BMP_temperature;BMP_pressure;BME280_temperature;BME280_humidity;BME280_pressure;Samples;Min_cycle;Max_cycle;Signal;HPM_P1;HPM_P2
2022/11/16 00:00:31;;;;;;;;;;;;;;;;;;;;;
2022/11/16 00:03:32;;;;;;;;;;;;;;;;;;;;;
2022/11/16 00:06:52;;;;;;;;;;;;;;;;;;;;;
2022/11/16 00:10:28;;;;;;;72.10;56.80;;;;;;;5.59;78.95;99838.66;108548;1283;21938;-81
2022/11/16 00:13:37;;;;;;;73.10;57.00;;;;;;;5.57;79.14;99829.55;107981;1289;22036;-80
2022/11/16 00:17:34;;;;;;;76.40;60.10;;;;;;;5.61;79.09;99827.22;107213;1297;22332;-82
2022/11/16 00:21:04;;;;;;;;;;;;;;;;;;;;;
2022/11/16 00:24:24;;;;;;;76.00;58.80;;;;;;;5.64;79.24;99824.54;106878;1300;21954;-81
2022/11/16 00:27:03;;;;;;;78.60;58.00;;;;;;;5.68;79.23;99829.45;106780;1301;22918;-80
2022/11/16 00:30:13;;;;;;;80.70;60.00;;;;;;;5.71;79.10;99827.30;106280;1307;23170;-80
2022/11/16 00:33:12;;;;;;;81.00;63.00;;;;;;;5.71;79.15;99819.17;106918;1300;23651;-80
2022/11/16 00:35:50;;;;;;;74.30;57.90;;;;;;;5.75;79.18;99810.96;106776;1303;23090;-80
2022/11/16 00:39:03;;;;;;;76.20;57.30;;;;;;;5.75;79.30;99802.34;106274;1305;22464;-80
2022/11/16 00:41:45;;;;;;;73.80;56.30;;;;;;;5.76;79.21;99798.15;106398;1304;21964;-81
2022/11/16 00:44:24;;;;;;;73.00;57.00;;;;;;;5.79;79.13;99795.32;106914;1302;21980;-82
2022/11/16 00:47:25;;;;;;;76.30;54.60;;;;;;;5.81;79.00;99799.23;106692;1295;21978;-82
2022/11/16 00:50:48;;;;;;;75.40;56.20;;;;;;;5.82;79.08;99802.66;107125;1301;21970;-81
2022/11/16 00:54:02;;;;;;;76.30;56.10;;;;;;;5.82;79.14;99808.20;106282;1304;21985;-81
2022/11/16 00:56:49;;;;;;;;;;;;;;;;;;;;;
2022/11/16 00:59:52;;;;;;;78.20;56.40;;;;;;;5.90;79.45;99809.36;106784;1301;21981;-81
2022/11/16 01:02:56;;;;;;;;;;;;;;;;;;;;;
2022/11/16 01:06:27;;;;;;;;;;;;;;;;;;;;;
2022/11/16 01:10:14;;;;;;;76.70;55.40;;;;;;;5.83;79.08;99798.66;106341;1304;21976;-82
2022/11/16 01:13:46;;;;;;;82.00;53.40;;;;;;;5.81;78.98;99801.66;106498;1301;23707;-82
2022/11/16 01:17:17;;;;;;;;;;;;;;;;;;;;;
2022/11/16 01:20:13;;;;;;;80.70;51.90;;;;;;;5.77;79.19;99793.66;106202;1305;22346;-80
2022/11/16 01:23:15;;;;;;;;;;;;;;;;;;;;;
2022/11/16 01:26:23;;;;;;;79.00;55.40;;;;;;;5.76;79.31;99778.98;106481;1301;21986;-79
2022/11/16 01:29:49;;;;;;;83.00;57.50;;;;;;;5.76;79.36;99777.79;106315;1301;22000;-78
2022/11/16 01:32:53;;;;;;;83.10;57.60;;;;;;;5.77;79.39;99779.31;106393;1301;21968;-79
2022/11/16 01:35:50;;;;;;;71.90;52.70;;;;;;;5.75;79.21;99784.20;106480;1304;21973;-79
2022/11/16 01:38:52;;;;;;;;;;;;;;;;;;;;;
2022/11/16 01:42:12;;;;;;;;;;;;;;;;;;;;;
2022/11/16 01:45:42;;;;;;;;;;;;;;;;;;;;;
2022/11/16 01:49:28;;;;;;;;;;;;;;;;;;;;;
2022/11/16 01:53:20;;;;;;;77.80;51.40;;;;;;;5.67;79.47;99759.04;106806;1300;23618;-81
2022/11/16 01:56:52;;;;;;;75.90;52.60;;;;;;;5.68;79.59;99754.35;106715;1295;24462;-80
2022/11/16 02:00:31;;;;;;;72.90;51.00;;;;;;;5.71;79.52;99755.82;106692;1300;23605;-79
2022/11/16 02:03:30;;;;;;;;;;;;;;;;;;;;;
2022/11/16 02:06:34;;;;;;;78.80;51.20;;;;;;;5.75;79.49;99750.35;106813;1298;23716;-79
2022/11/16 02:09:56;;;;;;;76.30;52.50;;;;;;;5.79;79.58;99746.98;106781;1300;23824;-79
2022/11/16 02:12:48;;;;;;;75.10;53.20;;;;;;;5.77;79.48;99744.78;107689;1292;23065;-81
2022/11/16 02:16:53;;;;;;;;;;;;;;;;;;;;;
2022/11/16 02:20:47;;;;;;;75.90;49.80;;;;;;;5.84;79.57;99747.36;107658;1291;23095;-80
2022/11/16 02:24:41;;;;;;;;;;;;;;;;;;;;;
2022/11/16 02:28:34;;;;;;;66.70;44.80;;;;;;;5.85;79.61;99730.58;106530;1303;21985;-81
2022/11/16 02:31:37;;;;;;;64.50;45.60;;;;;;;5.84;79.41;99724.55;106662;1304;23137;-79
2022/11/16 02:34:51;;;;;;;;;;;;;;;;;;;;;
2022/11/16 02:38:16;;;;;;;64.10;44.10;;;;;;;5.90;79.31;99724.91;106753;1297;22011;-80
2022/11/16 02:41:23;;;;;;;63.00;44.90;;;;;;;5.89;79.16;99724.27;106655;1299;22016;-79
2022/11/16 02:44:25;;;;;;;64.20;43.00;;;;;;;5.88;79.27;99722.70;106831;1298;23174;-79
2022/11/16 02:47:35;;;;;;;57.90;39.10;;;;;;;5.86;79.16;99721.04;107248;1292;21968;-80
2022/11/16 02:50:46;;;;;;;57.50;40.10;;;;;;;5.80;79.05;99715.85;107160;1295;21988;-80
2022/11/16 02:54:18;;;;;;;53.60;39.90;;;;;;;5.77;79.10;99712.48;107240;1292;22079;-80
2022/11/16 02:57:40;;;;;;;47.90;34.10;;;;;;;5.75;79.16;99711.18;107538;1286;21987;-79
2022/11/16 03:00:27;;;;;;;46.70;35.60;;;;;;;5.74;79.08;99706.38;107466;1295;22426;-80
2022/11/16 03:03:57;;;;;;;54.20;36.50;;;;;;;5.70;79.01;99706.83;107457;1292;21957;-80
2022/11/16 03:07:09;;;;;;;53.70;36.20;;;;;;;5.66;79.15;99702.77;107268;1292;21924;-80
2022/11/16 03:09:49;;;;;;;46.10;36.20;;;;;;;5.66;79.13;99698.30;107441;1290;21966;-78
2022/11/16 03:13:07;;;;;;;53.20;37.80;;;;;;;5.64;79.23;99701.64;107959;1286;21994;-80
2022/11/16 03:16:03;;;;;;;;;;;;;;;;;;;;;
2022/11/16 03:19:58;;;;;;;54.90;38.40;;;;;;;5.62;79.12;99705.15;108207;1280;21935;-80
2022/11/16 03:22:57;;;;;;;55.00;37.80;;;;;;;5.61;79.16;99707.77;107707;1289;21975;-80
2022/11/16 03:26:02;;;;;;;55.30;38.90;;;;;;;5.63;79.24;99709.25;107396;1295;23622;-81
2022/11/16 03:29:25;;;;;;;52.10;35.30;;;;;;;5.63;79.20;99711.50;107267;1294;22580;-79
2022/11/16 03:32:40;;;;;;;;;;;;;;;;;;;;;
2022/11/16 03:36:06;;;;;;;51.10;36.90;;;;;;;5.63;79.16;99707.52;107087;1290;22763;-79
2022/11/16 03:39:16;;;;;;;46.50;35.10;;;;;;;5.59;79.06;99712.48;107224;1294;22750;-80
2022/11/16 03:42:28;;;;;;;53.90;36.40;;;;;;;5.52;78.96;99710.92;107385;1294;23762;-80
2022/11/16 03:45:38;;;;;;;;;;;;;;;5.49;79.02;99703.45;107262;1294;23105;-82
2022/11/16 03:49:16;;;;;;;47.00;34.10;;;;;;;5.38;79.11;99702.86;107317;1294;24380;-79
2022/11/16 03:52:03;;;;;;;49.00;35.50;;;;;;;5.38;79.24;99698.55;107340;1291;21949;-79
2022/11/16 03:55:25;;;;;;;47.60;35.10;;;;;;;5.39;79.21;99698.89;106856;1299;23120;-78
2022/11/16 03:58:07;;;;;;;48.20;37.50;;;;;;;5.38;79.18;99697.02;105783;1305;23122;-78
2022/11/16 04:01:08;;;;;;;;;;;;;;;;;;;;;
2022/11/16 04:03:57;;;;;;;48.40;33.30;;;;;;;5.39;79.19;99699.21;106644;1297;23647;-79
2022/11/16 04:26:09;;;;;;;38.70;31.00;;;;;;;5.16;79.07;99695.66;108121;1286;23088;-80
2022/11/16 04:29:12;;;;;;;;;;;;;;;;;;;;;
2022/11/16 04:37:53;;;;;;;40.50;30.90;;;;;;;5.20;78.99;99697.14;107858;1286;23048;-79
2022/11/16 04:40:52;;;;;;;;;;;;;;;;;;;;;
2022/11/16 04:44:23;;;;;;;;;;;;;;;;;;;;;
2022/11/16 04:47:21;;;;;;;37.10;30.60;;;;;;;5.14;78.88;99686.94;107161;1295;21961;-79
2022/11/16 04:50:04;;;;;;;38.60;30.70;;;;;;;5.13;78.98;99679.53;107103;1295;23869;-79
2022/11/16 04:53:31;;;;;;;;;;;;;;;;;;;;;
2022/11/16 04:56:39;;;;;;;38.30;29.60;;;;;;;5.12;79.18;99668.88;107361;1294;22024;-79
2022/11/16 04:59:36;;;;;;;36.50;28.30;;;;;;;5.14;79.05;99665.20;106905;1291;22275;-79
2022/11/16 05:03:01;;;;;;;39.10;29.50;;;;;;;5.16;79.04;99666.71;107666;1286;22714;-78
2022/11/16 05:06:17;;;;;;;42.50;30.80;;;;;;;5.20;79.13;99670.74;108093;1283;23708;-79
2022/11/16 05:09:40;;;;;;;42.30;31.70;;;;;;;5.14;78.93;99655.90;108121;1272;24489;-79
2022/11/16 05:13:10;;;;;;;43.90;32.30;;;;;;;5.16;78.99;99656.70;107412;1278;23899;-78
2022/11/16 05:16:30;;;;;;;38.70;28.50;;;;;;;5.20;78.91;99656.09;106401;1300;21956;-78
2022/11/16 05:22:58;;;;;;;41.30;32.00;;;;;;;5.20;78.83;99645.37;107164;1294;21966;-79
2022/11/16 05:25:55;;;;;;;37.50;30.00;;;;;;;5.20;78.81;99645.02;107316;1294;22906;-78
2022/11/16 05:33:18;;;;;;;39.50;31.50;;;;;;;5.11;78.59;99643.89;107165;1297;21986;-79
2022/11/16 05:36:53;;;;;;;41.00;30.40;;;;;;;5.07;78.77;99637.44;107424;1291;21962;-80
2022/11/16 05:40:01;;;;;;;;;;;;;;;;;;;;;
2022/11/16 05:43:11;;;;;;;35.00;28.30;;;;;;;5.13;78.81;99633.67;107580;1292;23648;-80
2022/11/16 05:46:55;;;;;;;;;;;;;;;;;;;;;
2022/11/16 05:50:18;;;;;;;36.60;29.30;;;;;;;5.11;78.66;99625.27;106900;1295;22429;-80
2022/11/16 05:53:54;;;;;;;;;;;;;;;;;;;;;
2022/11/16 05:56:48;;;;;;;37.90;28.50;;;;;;;5.15;78.59;99626.20;107206;1287;22099;-79
2022/11/16 05:59:30;;;;;;;40.40;30.80;;;;;;;5.14;78.53;99623.80;107232;1285;22367;-81
2022/11/16 06:02:11;;;;;;;39.00;30.10;;;;;;;5.15;78.49;99623.61;107188;1294;21952;-80
2022/11/16 06:05:48;;;;;;;41.90;29.50;;;;;;;5.15;78.47;99614.46;107455;1295;22021;-81
2022/11/16 06:08:42;;;;;;;37.20;28.70;;;;;;;5.11;78.42;99615.61;107854;1289;21968;-82
2022/11/16 06:12:03;;;;;;;;;;;;;;;;;;;;;
2022/11/16 06:15:06;;;;;;;41.70;31.40;;;;;;;5.12;78.49;99614.20;107712;1292;21965;-81
2022/11/16 06:18:40;;;;;;;;;;;;;;;;;;;;;
2022/11/16 06:21:39;;;;;;;43.30;29.90;;;;;;;5.13;78.45;99617.10;107060;1297;24297;-81
2022/11/16 06:25:15;;;;;;;;;;;;;;;;;;;;;
2022/11/16 06:28:13;;;;;;;42.20;31.00;;;;;;;5.13;78.27;99622.98;106589;1303;21980;-82
2022/11/16 06:30:53;;;;;;;40.60;30.50;;;;;;;5.14;78.14;99625.55;106491;1301;21932;-82
2022/11/16 06:33:43;;;;;;;42.50;30.30;;;;;;;5.16;78.24;99627.55;106340;1301;21928;-80
2022/11/16 06:36:29;;;;;;;44.30;34.00;;;;;;;5.19;78.23;99621.42;107224;1294;23699;-81
2022/11/16 06:39:28;;;;;;;44.90;32.60;;;;;;;5.23;78.28;99619.26;107140;1295;21977;-79
2022/11/16 06:43:07;;;;;;;45.30;32.40;;;;;;;5.25;78.34;99621.96;107701;1286;22073;-79
2022/11/16 06:46:46;;;;;;;;;;;;;;;;;;;;;
2022/11/16 06:50:03;;;;;;;44.90;31.60;;;;;;;5.29;78.35;99613.90;106814;1300;21994;-79
2022/11/16 06:57:53;;;;;;;40.80;30.40;;;;;;;5.33;78.13;99612.42;106570;1297;22025;-77
2022/11/16 07:01:06;;;;;;;42.10;29.20;;;;;;;5.33;78.20;99610.69;106452;1297;22753;-79
2022/11/16 07:04:45;;;;;;;;;;;;;;;;;;;;;
2022/11/16 07:08:03;;;;;;;41.30;29.90;;;;;;;5.33;78.21;99615.88;106757;1297;21954;-80
2022/11/16 07:11:41;;;;;;;38.90;30.10;;;;;;;5.32;78.20;99615.73;106170;1306;22150;-80
2022/11/16 07:15:02;;;;;;;;;;;;;;;5.35;78.11;99620.13;106003;1309;21994;-80
2022/11/16 07:17:52;;;;;;;37.20;28.60;;;;;;;5.35;78.09;99625.84;106134;1304;23153;-80
2022/11/16 07:20:44;;;;;;;;;;;;;;;;;;;;;
2022/11/16 07:23:45;;;;;;;34.70;28.20;;;;;;;5.40;78.18;99621.54;106309;1303;22952;-79
2022/11/16 07:26:39;;;;;;;41.10;29.30;;;;;;;5.43;78.00;99623.20;106617;1300;22061;-77
2022/11/16 07:29:34;;;;;;;35.10;29.50;;;;;;;5.44;77.93;99620.72;107231;1291;22021;-78
2022/11/16 07:32:29;;;;;;;36.10;28.70;;;;;;;5.47;77.97;99615.13;107634;1286;22010;-79
2022/11/16 07:35:33;;;;;;;39.30;28.40;;;;;;;5.48;77.83;99613.36;107644;1286;21970;-79
2022/11/16 07:38:43;;;;;;;;;;;;;;;;;;;;;
2022/11/16 07:41:43;;;;;;;33.50;26.30;;;;;;;5.53;77.92;99615.30;107738;1288;23722;-79
2022/11/16 07:44:31;;;;;;;26.30;23.30;;;;;;;5.58;77.77;99616.90;107570;1288;23787;-81
2022/11/16 07:47:55;;;;;;;;;;;;;;;;;;;;;
2022/11/16 07:51:21;;;;;;;38.50;26.80;;;;;;;5.56;77.65;99620.38;108450;1279;21951;-81
2022/11/16 07:54:43;;;;;;;31.70;24.60;;;;;;;5.58;77.56;99620.67;108040;1285;21973;-80
2022/11/16 07:58:06;;;;;;;;;;;;;;;;;;;;;
2022/11/16 08:05:51;;;;;;;;;;;;;;;;;;;;;
2022/11/16 08:09:19;;;;;;;26.10;21.50;;;;;;;5.65;77.28;99625.66;106198;1303;21974;-79
2022/11/16 08:12:42;;;;;;;25.90;21.10;;;;;;;5.66;77.20;99629.92;106590;1298;22772;-79
2022/11/16 08:16:33;;;;;;;;;;;;;;;;;;;;;
2022/11/16 08:19:54;;;;;;;;;;;;;;;;;;;;;
2022/11/16 08:23:17;;;;;;;;;;;;;;;;;;;;;
2022/11/16 08:26:57;;;;;;;;;;;;;;;;;;;;;
2022/11/16 08:30:22;;;;;;;23.40;17.90;;;;;;;5.77;76.84;99625.81;106299;1303;22076;-79
2022/11/16 08:33:33;;;;;;;23.00;18.30;;;;;;;5.78;76.86;99625.96;105929;1308;23068;-80
2022/11/16 08:37:21;;;;;;;;;;;;;;;;;;;;;
2022/11/16 08:40:42;;;;;;;24.70;19.60;;;;;;;5.82;76.73;99616.52;106019;1306;23629;-79
2022/11/16 08:44:09;;;;;;;25.20;19.50;;;;;;;5.85;76.61;99614.17;106725;1298;21960;-80
2022/11/16 08:47:20;;;;;;;;;;;;;;;;;;;;;
2022/11/16 08:50:36;;;;;;;21.40;19.20;;;;;;;5.86;76.12;99610.88;107056;1294;22058;-80
2022/11/16 08:54:14;;;;;;;;;;;;;;;;;;;;;
2022/11/16 08:57:37;;;;;;;;;;;;;;;;;;;;;
2022/11/16 09:01:18;;;;;;;;;;;;;;;;;;;;;
2022/11/16 09:04:53;;;;;;;22.30;18.50;;;;;;;5.86;76.30;99620.20;106597;1300;21976;-81
2022/11/16 09:08:09;;;;;;;18.90;16.50;;;;;;;5.82;76.14;99613.60;106171;1300;21991;-78
2022/11/16 09:11:08;;;;;;;;;;;;;;;;;;;;;
2022/11/16 09:14:16;;;;;;;20.50;16.30;;;;;;;5.77;76.29;99610.10;107437;1295;23692;-80
2022/11/16 09:17:55;;;;;;;;;;;;;;;;;;;;;
2022/11/16 09:21:35;;;;;;;18.40;16.10;;;;;;;5.79;76.50;99614.36;107567;1289;21968;-80
2022/11/16 09:25:13;;;;;;;;;;;;;;;;;;;;;
2022/11/16 09:28:26;;;;;;;;;;;;;;;;;;;;;
2022/11/16 09:31:44;;;;;;;22.00;17.80;;;;;;;5.79;76.44;99614.02;108303;1285;24368;-81
2022/11/16 09:34:39;;;;;;;18.90;16.50;;;;;;;5.77;76.37;99614.23;108102;1281;22290;-80
2022/11/16 09:38:12;;;;;;;16.80;15.00;;;;;;;5.74;76.44;99611.23;107468;1278;21996;-80
2022/11/16 09:41:17;;;;;;;17.80;15.90;;;;;;;5.72;76.50;99609.38;107277;1294;23141;-80
2022/11/16 09:45:03;;;;;;;16.90;15.10;;;;;;;5.75;76.56;99610.67;107184;1295;21999;-80
2022/11/16 09:48:34;;;;;;;;;;;;;;;;;;;;;
2022/11/16 09:53:01;;;;;;;17.50;15.60;;;;;;;5.71;76.76;99617.36;107078;1295;22019;-79
2022/11/16 09:56:56;;;;;;;17.20;15.40;;;;;;;5.68;76.83;99607.09;106958;1301;24420;-80
2022/11/16 10:04:10;;;;;;;;;;;;;;;;;;;;;
2022/11/16 10:07:22;;;;;;;20.80;18.30;;;;;;;5.79;76.87;99602.61;105955;1309;24453;-80
2022/11/16 10:11:00;;;;;;;;;;;;;;;;;;;;;
2022/11/16 10:15:00;;;;;;;;;;;;;;;;;;;;;
2022/11/16 10:18:01;;;;;;;20.90;18.70;;;;;;;5.77;76.76;99597.34;105901;1312;23081;-82
2022/11/16 10:22:03;;;;;;;;;;;;;;;;;;;;;
2022/11/16 10:25:49;;;;;;;20.50;18.40;;;;;;;6.01;76.25;99589.56;108622;1288;22094;-80
2022/11/16 10:30:35;;;;;;;19.10;17.10;;;;;;;5.98;76.46;99584.98;107277;1298;22091;-79
2022/11/16 10:33:57;;;;;;;22.10;19.30;;;;;;;5.97;76.45;99587.27;103748;1301;3920420;-80
2022/11/16 10:37:08;;;;;;;22.60;18.60;;;;;;;6.00;76.44;99583.36;106738;1301;21968;-80
2022/11/16 10:40:53;;;;;;;;;;;;;;;;;;;;;
2022/11/16 10:44:26;;;;;;;21.40;17.50;;;;;;;6.05;76.35;99573.55;106182;1307;23055;-80
2022/11/16 10:47:43;;;;;;;16.60;14.80;;;;;;;6.03;75.89;99569.29;106344;1299;21972;-80
2022/11/16 10:50:39;;;;;;;19.20;16.80;;;;;;;6.00;75.96;99566.98;105886;1313;21970;-78
2022/11/16 10:53:27;;;;;;;18.20;16.30;;;;;;;5.98;75.98;99564.09;105461;1313;23617;-77
2022/11/16 10:56:30;;;;;;;17.90;15.10;;;;;;;5.98;75.95;99559.78;105579;1313;22437;-77
2022/11/16 10:59:27;;;;;;;17.40;15.40;;;;;;;5.96;75.87;99558.27;105858;1310;21964;-78
2022/11/16 11:02:25;;;;;;;20.60;17.40;;;;;;;5.93;75.68;99556.96;106253;1304;21968;-77
2022/11/16 11:05:06;;;;;;;23.50;18.50;;;;;;;5.93;75.71;99560.25;106601;1298;21924;-79
2022/11/16 11:07:38;;;;;;;22.00;19.70;;;;;;;5.95;75.62;99559.52;107182;1296;21934;-82
2022/11/16 11:10:30;;;;;;;21.80;19.50;;;;;;;5.96;75.54;99559.29;107863;1292;21957;-82
2022/11/16 11:13:11;;;;;;;22.40;18.80;;;;;;;6.01;75.67;99561.91;107342;1295;21961;-78
2022/11/16 11:15:42;;;;;;;22.10;19.00;;;;;;;6.03;75.53;99560.48;107467;1295;21992;-78
2022/11/16 11:18:32;;;;;;;21.60;19.40;;;;;;;6.05;75.50;99559.20;107379;1295;22680;-83
2022/11/16 11:21:49;;;;;;;19.90;17.80;;;;;;;6.07;75.56;99558.63;106968;1298;23783;-79
2022/11/16 11:24:39;;;;;;;19.20;15.90;;;;;;;6.07;75.48;99560.34;107062;1298;21983;-78
2022/11/16 11:27:22;;;;;;;21.40;19.10;;;;;;;6.08;75.63;99558.08;107516;1287;21970;-79
2022/11/16 11:29:57;;;;;;;22.90;19.10;;;;;;;6.10;75.56;99556.13;108395;1286;23077;-82
2022/11/16 11:32:44;;;;;;;19.30;17.20;;;;;;;6.10;75.40;99556.79;108373;1287;23612;-83
2022/11/16 11:35:55;;;;;;;20.50;17.70;;;;;;;6.09;75.48;99556.30;107699;1292;21972;-80
2022/11/16 11:39:17;;;;;;;18.00;15.10;;;;;;;6.10;75.44;99558.55;107853;1283;22108;-82
2022/11/16 11:42:25;;;;;;;17.30;14.10;;;;;;;6.10;75.36;99557.15;108427;1284;23103;-77
2022/11/16 11:45:17;;;;;;;18.60;16.00;;;;;;;6.09;75.39;99556.16;108465;1283;22198;-80
2022/11/16 11:48:41;;;;;;;16.10;13.90;;;;;;;6.10;75.33;99556.63;108572;1284;22425;-80
2022/11/16 11:51:41;;;;;;;16.30;13.70;;;;;;;6.09;75.23;99554.08;108357;1284;22642;-81
2022/11/16 11:54:37;;;;;;;17.00;13.40;;;;;;;6.09;75.17;99551.65;108650;1275;21942;-81
2022/11/16 11:57:24;;;;;;;15.20;11.60;;;;;;;6.11;75.13;99551.61;108567;1275;23649;-77
2022/11/16 12:00:16;;;;;;;15.50;13.60;;;;;;;6.14;75.06;99552.52;108525;1278;21932;-77
2022/11/16 12:04:14;;;;;;;18.10;13.60;;;;;;;6.19;75.08;99554.10;108236;1281;21993;-78
2022/11/16 12:07:21;;;;;;;19.40;15.10;;;;;;;6.17;74.78;99555.54;108564;1282;23054;-79
2022/11/16 12:10:35;;;;;;;18.80;14.40;;;;;;;6.18;74.80;99551.70;108735;1281;22661;-80
2022/11/16 12:14:07;;;;;;;15.30;13.30;;;;;;;6.20;74.88;99543.86;108635;1284;21939;-77
2022/11/16 12:17:05;;;;;;;13.60;12.20;;;;;;;6.23;74.69;99541.16;108400;1281;21947;-79
2022/11/16 12:19:38;;;;;;;18.60;13.40;;;;;;;6.22;74.49;99538.95;108442;1283;21939;-79
2022/11/16 12:22:57;;;;;;;15.20;13.30;;;;;;;6.21;74.44;99532.95;108346;1286;23156;-79
2022/11/16 12:26:14;;;;;;;12.70;11.30;;;;;;;6.19;74.34;99530.58;108387;1285;23049;-78
2022/11/16 12:29:52;;;;;;;12.50;11.10;;;;;;;6.13;74.28;99530.60;108175;1286;22711;-78
2022/11/16 12:32:58;;;;;;;14.90;10.40;;;;;;;6.06;74.36;99524.45;108071;1281;22892;-79
2022/11/16 12:36:45;;;;;;;15.00;10.00;;;;;;;6.00;74.29;99524.46;108529;1281;22536;-80
2022/11/16 12:39:30;;;;;;;15.60;11.70;;;;;;;5.96;74.47;99525.11;107935;1292;21987;-79
2022/11/16 12:42:07;;;;;;;14.70;11.20;;;;;;;5.98;74.53;99521.07;108108;1285;21952;-79
2022/11/16 12:45:21;;;;;;;13.90;10.20;;;;;;;6.05;74.54;99526.91;108307;1286;22267;-80
2022/11/16 12:48:46;;;;;;;13.70;10.50;;;;;;;6.03;74.25;99527.84;108072;1285;21992;-79
2022/11/16 12:51:47;;;;;;;13.40;9.50;;;;;;;6.08;74.42;99529.74;108264;1286;22708;-80
2022/11/16 12:54:57;;;;;;;15.50;9.70;;;;;;;6.11;74.23;99529.98;108073;1286;23788;-79
2022/11/16 12:58:33;;;;;;;10.50;8.90;;;;;;;6.10;74.04;99527.45;108532;1283;21939;-80
2022/11/16 13:01:39;;;;;;;12.40;9.10;;;;;;;6.10;74.02;99522.41;108399;1276;21958;-80
2022/11/16 13:04:34;;;;;;;14.30;10.40;;;;;;;6.12;73.95;99515.11;108372;1282;21933;-81
2022/11/16 13:07:23;;;;;;;14.50;9.00;;;;;;;6.14;73.72;99514.68;108665;1283;21957;-80
2022/11/16 13:10:34;;;;;;;10.30;7.40;;;;;;;6.13;73.36;99515.42;108162;1285;21995;-80
2022/11/16 13:17:01;;;;;;;;;;;;;;;;;;;;;
2022/11/16 13:19:38;;;;;;;18.50;10.50;;;;;;;5.97;73.30;99505.76;108091;1287;23106;-81
2022/11/16 13:22:25;;;;;;;11.20;7.90;;;;;;;5.99;73.36;99508.95;108398;1275;21937;-80
2022/11/16 13:25:40;;;;;;;9.40;7.60;;;;;;;6.01;73.32;99505.96;108239;1284;22791;-81
2022/11/16 13:28:49;;;;;;;13.70;9.40;;;;;;;6.01;73.37;99505.98;108406;1274;22307;-81
2022/11/16 13:31:57;;;;;;;12.70;10.50;;;;;;;5.98;73.31;99507.10;108591;1281;22717;-81
2022/11/16 13:34:41;;;;;;;11.80;10.10;;;;;;;5.97;73.30;99504.52;108589;1284;22141;-80
2022/11/16 13:37:39;;;;;;;13.40;11.60;;;;;;;6.00;73.27;99500.46;108341;1287;22653;-80
2022/11/16 13:40:36;;;;;;;13.00;10.80;;;;;;;5.98;73.27;99501.56;108186;1290;21966;-81
2022/11/16 13:43:13;;;;;;;12.60;11.10;;;;;;;5.99;73.28;99497.20;107931;1286;21949;-79
2022/11/16 13:46:02;;;;;;;13.50;11.00;;;;;;;6.01;73.27;99496.63;107789;1283;23694;-79
2022/11/16 13:48:36;;;;;;;12.30;10.30;;;;;;;6.03;73.30;99496.73;106992;1298;21961;-80
2022/11/16 13:51:19;;;;;;;12.90;11.30;;;;;;;6.03;73.29;99495.70;108077;1289;21955;-80
2022/11/16 13:53:56;;;;;;;12.10;9.70;;;;;;;6.04;73.32;99498.77;108064;1289;21955;-79
2022/11/16 13:57:23;;;;;;;13.60;11.50;;;;;;;6.01;73.35;99494.58;108096;1290;22708;-81
2022/11/16 14:00:19;;;;;;;16.00;13.50;;;;;;;5.98;73.43;99498.28;107351;1292;23067;-80
2022/11/16 14:03:10;;;;;;;12.30;10.90;;;;;;;6.02;73.58;99506.80;108184;1290;21950;-80
2022/11/16 14:05:43;;;;;;;12.50;9.40;;;;;;;5.99;73.31;99503.43;108146;1290;21954;-80
2022/11/16 14:08:21;;;;;;;7.60;6.80;;;;;;;5.94;73.31;99507.38;108235;1284;21973;-79
2022/11/16 14:10:50;;;;;;;8.50;7.70;;;;;;;5.85;73.23;99506.27;108669;1280;23598;-80
2022/11/16 14:13:39;;;;;;;9.30;8.40;;;;;;;5.81;73.40;99508.14;108811;1280;22105;-80
2022/11/16 14:16:20;;;;;;;21.00;12.30;;;;;;;5.77;73.47;99506.68;108512;1281;21933;-80
2022/11/16 14:19:43;;;;;;;13.50;10.00;;;;;;;5.73;73.62;99507.67;109152;1276;21949;-83
2022/11/16 14:23:52;;;;;;;11.70;10.50;;;;;;;5.65;73.78;99507.40;109066;1276;21892;-77
2022/11/16 14:26:54;;;;;;;8.60;6.90;;;;;;;5.59;73.90;99513.65;108895;1276;21918;-79
2022/11/16 14:30:00;;;;;;;8.40;7.40;;;;;;;5.56;74.01;99510.61;108882;1278;21939;-80
2022/11/16 14:32:42;;;;;;;10.30;8.50;;;;;;;5.58;74.13;99513.66;109042;1283;21936;-80
2022/11/16 14:35:34;;;;;;;8.80;8.00;;;;;;;5.62;74.15;99511.31;109096;1282;21947;-84
2022/11/16 14:38:49;;;;;;;10.10;8.10;;;;;;;5.61;74.09;99513.74;108980;1280;21946;-81
2022/11/16 14:41:23;;;;;;;7.20;6.50;;;;;;;5.60;74.21;99511.01;109070;1279;21955;-83
2022/11/16 14:44:02;;;;;;;7.70;6.90;;;;;;;5.62;74.19;99514.58;108971;1282;23616;-79
2022/11/16 14:46:45;;;;;;;9.00;7.60;;;;;;;5.63;74.10;99512.98;108803;1278;24037;-80
2022/11/16 14:49:36;;;;;;;6.70;6.00;;;;;;;5.65;74.15;99509.33;109031;1275;22905;-80
2022/11/16 14:52:08;;;;;;;8.00;7.10;;;;;;;5.67;74.09;99512.70;109252;1274;23571;-79
2022/11/16 14:55:18;;;;;;;9.30;8.10;;;;;;;5.69;74.14;99514.72;108804;1272;21980;-85
2022/11/16 14:58:20;;;;;;;8.50;7.70;;;;;;;5.69;74.07;99515.23;108607;1283;23591;-79
2022/11/16 15:00:55;;;;;;;13.50;11.60;;;;;;;5.69;74.04;99514.02;108538;1279;23071;-80
2022/11/16 15:03:51;;;;;;;;;;;;;;;;;;;;;
2022/11/16 15:06:56;;;;;;;8.20;7.40;;;;;;;5.69;73.94;99511.59;108558;1285;22029;-80
2022/11/16 15:09:59;;;;;;;8.90;7.90;;;;;;;5.68;74.03;99513.88;108778;1271;23837;-80
2022/11/16 15:12:51;;;;;;;;;;;;;;;;;;;;;
2022/11/16 15:15:30;;;;;;;8.60;6.80;;;;;;;5.68;73.99;99513.88;108672;1282;21934;-80
2022/11/16 15:18:02;;;;;;;9.70;8.70;;;;;;;5.73;74.07;99515.78;108628;1283;21949;-79
2022/11/16 15:20:54;;;;;;;7.80;7.00;;;;;;;5.69;73.97;99506.96;108988;1279;22204;-85
2022/11/16 15:23:50;;;;;;;11.20;10.20;;;;;;;5.70;73.88;99511.75;108627;1285;21966;-83
2022/11/16 15:27:37;;;;;;;9.50;8.50;;;;;;;5.71;73.89;99513.27;108595;1284;21959;-80
2022/11/16 15:30:28;;;;;;;8.70;7.70;;;;;;;5.71;73.92;99517.92;108779;1286;21961;-84
2022/11/16 15:33:13;;;;;;;8.40;7.30;;;;;;;5.73;73.94;99518.05;108355;1284;21934;-84
2022/11/16 15:35:49;;;;;;;13.70;9.40;;;;;;;5.74;73.85;99515.79;108439;1285;21975;-80
2022/11/16 15:38:41;;;;;;;;;;;;;;;;;;;;;
2022/11/16 15:41:21;;;;;;;12.80;10.80;;;;;;;5.75;73.73;99506.39;108765;1278;22408;-80
2022/11/16 15:43:55;;;;;;;14.50;11.10;;;;;;;5.78;73.67;99506.30;108758;1281;22830;-77
2022/11/16 15:46:48;;;;;;;16.40;11.70;;;;;;;5.78;73.57;99509.77;108426;1281;22701;-79
2022/11/16 15:49:51;;;;;;;11.10;9.90;;;;;;;5.76;73.60;99511.55;108603;1284;22054;-76
2022/11/16 15:52:54;;;;;;;10.30;9.30;;;;;;;5.76;73.61;99513.63;108754;1277;22119;-82
2022/11/16 15:55:53;;;;;;;11.60;10.30;;;;;;;5.72;73.54;99512.02;108707;1279;22009;-81
2022/11/16 15:58:40;;;;;;;12.20;10.50;;;;;;;5.71;73.54;99511.72;108692;1278;24329;-80
2022/11/16 16:01:44;;;;;;;23.30;12.30;;;;;;;5.68;73.54;99510.60;108488;1278;22038;-80
2022/11/16 16:04:16;;;;;;;12.90;10.60;;;;;;;5.63;73.36;99509.55;108602;1282;21984;-79
2022/11/16 16:06:59;;;;;;;11.80;10.60;;;;;;;5.53;73.37;99511.75;108075;1280;21934;-80
2022/11/16 16:09:43;;;;;;;7.80;7.00;;;;;;;5.42;73.45;99511.39;108752;1280;22280;-79
2022/11/16 16:12:25;;;;;;;9.50;8.40;;;;;;;5.29;73.34;99512.13;108553;1283;22340;-79
2022/11/16 16:15:28;;;;;;;8.40;7.00;;;;;;;5.17;73.66;99516.43;108444;1283;24420;-81
2022/11/16 16:18:15;;;;;;;9.20;8.30;;;;;;;5.11;73.82;99520.40;108409;1285;23634;-83
2022/11/16 16:21:57;;;;;;;11.20;10.10;;;;;;;4.98;74.11;99518.55;108492;1283;21946;-82
2022/11/16 16:24:54;;;;;;;8.80;7.70;;;;;;;4.90;74.39;99526.86;108617;1278;21951;-83
2022/11/16 16:27:47;;;;;;;7.30;6.30;;;;;;;4.78;74.52;99521.33;108826;1278;21941;-83
2022/11/16 16:30:43;;;;;;;;;;;;;;;;;;;;;
2022/11/16 16:33:27;;;;;;;13.70;10.80;;;;;;;4.57;74.77;99519.14;109192;1274;23635;-83
2022/11/16 16:36:14;;;;;;;9.30;7.90;;;;;;;4.51;74.99;99520.48;109264;1272;21916;-83
2022/11/16 16:38:51;;;;;;;8.50;7.70;;;;;;;4.48;75.10;99528.85;109078;1272;22487;-82
2022/11/16 16:41:21;;;;;;;7.80;6.70;;;;;;;4.44;75.21;99524.48;108984;1275;23142;-82
2022/11/16 16:44:16;;;;;;;7.60;6.60;;;;;;;4.38;75.34;99523.93;109119;1276;21937;-83
2022/11/16 16:46:54;;;;;;;7.50;6.80;;;;;;;4.38;75.52;99533.42;109058;1272;23059;-80
2022/11/16 16:49:36;;;;;;;7.40;6.70;;;;;;;4.34;75.57;99534.54;109411;1275;21901;-85
2022/11/16 16:52:20;;;;;;;10.20;7.80;;;;;;;4.34;75.79;99533.35;109607;1275;21856;-86
2022/11/16 16:54:53;;;;;;;10.60;9.60;;;;;;;4.35;75.84;99533.66;109365;1275;23010;-85
2022/11/16 16:57:24;;;;;;;10.50;9.40;;;;;;;4.33;75.79;99533.35;109036;1278;21938;-86